Time;durP1;ratioP1;P1;durP2;ratioP2;P2;SDS_P1;SDS_P2;PMS_P1;PMS_P2;Temp;Humidity;BMP_temperature;BMP_pressure;BME280_temperature;BME280_humidity;BME280_pressure;Samples;Min_cycle;Max_cycle;Signal;HPM_P1;HPM_P2
2022/05/09 00:00:44;;;;;;;2.83;2.72;;;;;;;;;;5098159;27;20603;-57
2022/05/09 00:03:23;;;;;;;3.00;2.80;;;;;;;;;;5111942;27;20883;-57
2022/05/09 00:06:03;;;;;;;2.80;2.60;;;;;;;;;;5112474;27;20587;-57
2022/05/09 00:08:45;;;;;;;2.85;2.65;;;;;;;;;;5083318;27;21006;-57
2022/05/09 00:11:24;;;;;;;2.50;2.30;;;;;;;;;;5090619;28;20680;-57
2022/05/09 00:14:05;;;;;;;3.00;2.80;;;;;;;;;;5152900;27;20537;-55
2022/05/09 00:16:44;;;;;;;4.80;2.92;;;;;;;;;;5082225;27;20552;-58
2022/05/09 00:19:24;;;;;;;3.33;3.03;;;;;;;;;;5082954;27;20577;-58
2022/05/09 00:22:04;;;;;;;2.88;2.67;;;;;;;;;;5083181;27;21034;-57
2022/05/09 00:24:44;;;;;;;3.47;3.00;;;;;;;;;;5083336;28;20589;-58
2022/05/09 00:27:24;;;;;;;3.17;2.97;;;;;;;;;;5107776;27;20857;-57
2022/05/09 00:30:04;;;;;;;2.80;2.60;;;;;;;;;;5120891;27;20549;-57
2022/05/09 00:32:43;;;;;;;3.10;2.78;;;;;;;;;;5101480;27;20966;-57
2022/05/09 00:35:23;;;;;;;2.85;2.58;;;;;;;;;;5060573;27;20600;-57
2022/05/09 00:38:03;;;;;;;4.10;2.75;;;;;;;;;;5069303;27;21107;-57
2022/05/09 00:41:28;;;;;;;4.82;3.50;;;;;;;;;;5122634;27;20555;-57
2022/05/09 00:43:43;;;;;;;3.58;3.28;;;;;;;;;;5082062;28;20676;-57
2022/05/09 00:46:23;;;;;;;2.65;2.47;;;;;;;;;;5082003;27;20561;-57
2022/05/09 00:49:06;;;;;;;2.85;2.67;;;;;;;;;;5103089;27;20966;-57
2022/05/09 00:51:48;;;;;;;3.15;2.80;;;;;;;;;;5116202;27;20576;-57
2022/05/09 00:54:33;;;;;;;3.63;2.90;;;;;;;;;;5081656;27;20539;-57
2022/05/09 00:57:19;;;;;;;3.30;3.10;;;;;;;;;;5132513;27;20617;-57
2022/05/09 01:00:01;;;;;;;3.63;2.47;;;;;;;;;;5123761;27;20536;-57
2022/05/09 01:02:43;;;;;;;3.13;2.92;;;;;;;;;;5083702;27;21063;-56
2022/05/09 01:05:23;;;;;;;3.33;3.13;;;;;;;;;;5081546;27;21031;-58
2022/05/09 01:08:02;;;;;;;4.57;3.50;;;;;;;;;;5083053;28;21033;-57
2022/05/09 01:10:43;;;;;;;3.22;3.03;;;;;;;;;;5082956;28;20563;-57
2022/05/09 01:13:31;;;;;;;3.03;2.83;;;;;;;;;;5058053;27;20548;-57
2022/05/09 01:16:12;;;;;;;4.05;3.75;;;;;;;;;;5082237;27;20581;-58
2022/05/09 01:18:52;;;;;;;3.97;3.58;;;;;;;;;;5082745;28;21025;-57
2022/05/09 01:21:35;;;;;;;4.43;4.07;;;;;;;;;;5144279;27;20558;-57
2022/05/09 01:24:19;;;;;;;4.25;3.97;;;;;;;;;;5103673;27;20600;-57
2022/05/09 01:26:59;;;;;;;4.70;3.47;;;;;;;;;;5109001;27;20697;-57
2022/05/09 01:29:44;;;;;;;3.35;3.05;;;;;;;;;;5138276;27;20654;-57
2022/05/09 01:32:26;;;;;;;3.38;3.17;;;;;;;;;;5123564;27;20888;-57
2022/05/09 01:35:09;;;;;;;4.63;3.38;;;;;;;;;;5122545;27;20884;-57
2022/05/09 01:37:52;;;;;;;3.60;3.30;;;;;;;;;;5082423;27;20555;-58
2022/05/09 01:40:31;;;;;;;4.10;3.67;;;;;;;;;;5144410;27;20566;-57
2022/05/09 01:43:11;;;;;;;4.38;3.97;;;;;;;;;;5086727;27;20688;-58
2022/05/09 01:45:50;;;;;;;4.38;3.80;;;;;;;;;;5143240;27;20958;-57
2022/05/09 01:51:28;;;;;;;3.80;3.50;;;;;;;;;;5144867;27;20603;-57
2022/05/09 01:54:13;;;;;;;4.43;3.60;;;;;;;;;;5103825;27;20542;-57
2022/05/09 01:56:52;;;;;;;4.40;4.10;;;;;;;;;;5102133;27;20541;-57
2022/05/09 01:59:32;;;;;;;3.72;3.50;;;;;;;;;;5082312;27;20535;-57
2022/05/09 02:02:13;;;;;;;3.60;3.30;;;;;;;;;;5082777;27;20547;-57
2022/05/09 02:04:53;;;;;;;4.10;3.80;;;;;;;;;;5103102;27;20542;-57
2022/05/09 02:07:33;;;;;;;3.88;3.58;;;;;;;;;;5123411;27;20552;-57
2022/05/09 02:10:13;;;;;;;3.70;3.50;;;;;;;;;;5148749;27;20545;-57
2022/05/09 02:12:53;;;;;;;3.78;3.58;;;;;;;;;;5082861;27;20679;-57
2022/05/09 02:15:35;;;;;;;3.55;3.35;;;;;;;;;;5081915;27;20573;-57
2022/05/09 02:18:16;;;;;;;2.67;2.40;;;;;;;;;;5145016;27;20689;-57
2022/05/09 02:20:57;;;;;;;2.97;2.75;;;;;;;;;;5103539;27;20615;-57
2022/05/09 02:23:37;;;;;;;3.17;2.90;;;;;;;;;;5115889;27;20536;-57
2022/05/09 02:26:17;;;;;;;3.42;3.22;;;;;;;;;;5110351;27;20603;-57
2022/05/09 02:28:57;;;;;;;3.38;3.13;;;;;;;;;;5142005;27;20539;-57
2022/05/09 02:31:36;;;;;;;3.33;3.13;;;;;;;;;;5083332;28;20568;-57
2022/05/09 02:34:16;;;;;;;3.30;3.00;;;;;;;;;;5103422;27;20859;-57
2022/05/09 02:36:56;;;;;;;2.85;2.65;;;;;;;;;;5114232;27;20540;-57
2022/05/09 02:39:36;;;;;;;3.97;3.67;;;;;;;;;;5103822;27;20603;-57
2022/05/09 02:42:16;;;;;;;4.43;3.15;;;;;;;;;;5146990;27;20535;-57
2022/05/09 02:44:55;;;;;;;3.90;3.67;;;;;;;;;;5123576;27;20544;-57
2022/05/09 02:47:35;;;;;;;3.20;2.97;;;;;;;;;;5083611;28;20699;-57
2022/05/09 02:50:15;;;;;;;3.65;3.35;;;;;;;;;;5103448;27;21214;-57
2022/05/09 02:52:56;;;;;;;2.60;2.40;;;;;;;;;;5143215;27;20607;-57
2022/05/09 02:55:36;;;;;;;3.00;2.80;;;;;;;;;;5150373;27;20556;-58
2022/05/09 02:58:16;;;;;;;2.97;2.78;;;;;;;;;;5103053;27;21057;-57
2022/05/09 03:00:56;;;;;;;3.30;3.05;;;;;;;;;;5123875;27;20907;-57
2022/05/09 03:06:33;;;;;;;2.90;2.80;;;;;;;;;;5143591;27;20667;-57
2022/05/09 03:09:13;;;;;;;3.03;2.83;;;;;;;;;;5082955;27;20579;-57
2022/05/09 03:11:53;;;;;;;2.63;2.50;;;;;;;;;;5078805;27;20664;-57
2022/05/09 03:14:33;;;;;;;2.58;2.38;;;;;;;;;;5082925;27;20597;-57
2022/05/09 03:17:13;;;;;;;3.13;2.95;;;;;;;;;;5109592;27;20538;-57
2022/05/09 03:19:53;;;;;;;3.20;3.00;;;;;;;;;;5102502;27;20660;-57
2022/05/09 03:22:32;;;;;;;3.28;2.97;;;;;;;;;;5102473;27;20591;-57
2022/05/09 03:25:12;;;;;;;3.15;2.95;;;;;;;;;;5102008;27;20538;-58
2022/05/09 03:27:52;;;;;;;3.35;2.85;;;;;;;;;;5095032;27;20557;-58
2022/05/09 03:30:32;;;;;;;3.28;2.85;;;;;;;;;;5148774;27;20553;-57
2022/05/09 03:33:12;;;;;;;2.85;2.65;;;;;;;;;;5102116;27;20603;-57
2022/05/09 03:35:52;;;;;;;3.28;3.08;;;;;;;;;;5112094;27;20950;-57
2022/05/09 03:38:33;;;;;;;3.28;3.08;;;;;;;;;;5081270;28;20671;-57
2022/05/09 03:41:13;;;;;;;3.22;3.03;;;;;;;;;;5081372;27;20566;-57
2022/05/09 03:43:52;;;;;;;3.03;2.83;;;;;;;;;;5081325;27;20545;-57
2022/05/09 03:46:32;;;;;;;3.63;2.80;;;;;;;;;;5114329;27;20567;-57
2022/05/09 03:49:12;;;;;;;2.80;2.60;;;;;;;;;;5150992;27;20538;-57
2022/05/09 03:51:52;;;;;;;3.85;3.10;;;;;;;;;;5080368;27;20695;-57
2022/05/09 03:54:33;;;;;;;3.70;3.45;;;;;;;;;;5082242;28;20453;-58
2022/05/09 03:57:15;;;;;;;3.85;3.58;;;;;;;;;;5121458;27;20548;-57
2022/05/09 03:59:55;;;;;;;3.13;2.60;;;;;;;;;;5144373;27;20563;-57
2022/05/09 04:02:38;;;;;;;2.80;2.60;;;;;;;;;;5082952;27;20541;-57
2022/05/09 04:05:18;;;;;;;3.45;3.15;;;;;;;;;;5081424;28;20747;-57
2022/05/09 04:07:58;;;;;;;2.72;2.63;;;;;;;;;;5125456;27;20524;-57
2022/05/09 04:10:40;;;;;;;2.65;2.45;;;;;;;;;;5072023;27;21067;-57
2022/05/09 04:13:20;;;;;;;3.40;3.20;;;;;;;;;;5101670;27;20484;-57
2022/05/09 04:18:59;;;;;;;2.75;2.55;;;;;;;;;;5145674;27;20550;-58
2022/05/09 04:21:39;;;;;;;2.95;2.75;;;;;;;;;;5155097;27;20553;-57
2022/05/09 04:24:19;;;;;;;3.65;3.45;;;;;;;;;;5082680;28;20663;-57
2022/05/09 04:26:59;;;;;;;3.25;3.00;;;;;;;;;;5060832;28;20603;-57
2022/05/09 04:29:40;;;;;;;3.83;3.22;;;;;;;;;;5103575;27;20595;-57
2022/05/09 04:32:20;;;;;;;3.47;3.28;;;;;;;;;;5132249;27;20672;-58
2022/05/09 04:35:00;;;;;;;3.53;3.22;;;;;;;;;;5082430;28;20605;-58
2022/05/09 04:37:42;;;;;;;3.83;3.50;;;;;;;;;;5123624;27;20825;-57
2022/05/09 04:40:22;;;;;;;3.80;3.60;;;;;;;;;;5139645;27;20609;-57
2022/05/09 04:43:02;;;;;;;3.97;3.75;;;;;;;;;;5083392;27;20560;-57
2022/05/09 04:45:42;;;;;;;5.55;5.10;;;;;;;;;;5081641;28;20701;-57
2022/05/09 04:48:24;;;;;;;4.80;4.50;;;;;;;;;;5123515;27;20540;-57
2022/05/09 04:51:03;;;;;;;4.43;4.13;;;;;;;;;;5150634;27;20552;-57
2022/05/09 04:53:43;;;;;;;4.97;4.53;;;;;;;;;;5083048;28;20672;-57
2022/05/09 04:56:23;;;;;;;3.67;3.47;;;;;;;;;;5102062;27;21058;-57
2022/05/09 04:59:03;;;;;;;3.78;3.58;;;;;;;;;;5103121;27;20670;-56
2022/05/09 05:01:44;;;;;;;3.58;3.38;;;;;;;;;;5130314;27;20687;-58
2022/05/09 05:04:24;;;;;;;3.33;3.13;;;;;;;;;;5138724;27;20605;-57
2022/05/09 05:07:04;;;;;;;6.55;6.15;;;;;;;;;;5081049;28;20597;-58
2022/05/09 05:09:44;;;;;;;8.15;7.50;;;;;;;;;;5082804;27;20671;-57
2022/05/09 05:12:24;;;;;;;4.45;4.15;;;;;;;;;;5084243;27;20552;-58
2022/05/09 05:15:04;;;;;;;4.18;3.88;;;;;;;;;;5123090;27;20699;-58
2022/05/09 05:17:43;;;;;;;5.30;3.92;;;;;;;;;;5123894;27;21021;-58
2022/05/09 05:20:23;;;;;;;4.15;3.70;;;;;;;;;;5097487;27;20613;-57
2022/05/09 05:23:03;;;;;;;9.35;6.10;;;;;;;;;;5102184;27;20550;-57
2022/05/09 05:25:45;;;;;;;8.35;5.28;;;;;;;;;;5160003;27;20537;-57
2022/05/09 05:28:26;;;;;;;6.60;5.97;;;;;;;;;;5083627;28;20613;-57
2022/05/09 05:31:16;;;;;;;7.35;6.03;;;;;;;;;;5091661;27;20567;-57
2022/05/09 05:33:57;;;;;;;9.30;5.53;;;;;;;;;;5082782;27;20569;-57
2022/05/09 05:36:36;;;;;;;7.55;5.90;;;;;;;;;;5122717;27;20533;-58
2022/05/09 05:39:16;;;;;;;8.60;4.97;;;;;;;;;;5131895;27;21318;-57
2022/05/09 05:41:56;;;;;;;14.15;5.18;;;;;;;;;;5083237;27;20580;-57
2022/05/09 05:44:37;;;;;;;8.07;4.60;;;;;;;;;;5083278;28;20668;-57
2022/05/09 05:47:18;;;;;;;5.45;4.93;;;;;;;;;;5081955;27;20569;-57
2022/05/09 05:49:59;;;;;;;5.28;4.85;;;;;;;;;;5123000;27;20600;-57
2022/05/09 05:52:40;;;;;;;5.82;5.00;;;;;;;;;;5123588;27;21501;-57
2022/05/09 05:55:20;;;;;;;5.38;4.95;;;;;;;;;;5122744;27;21200;-58
2022/05/09 05:58:00;;;;;;;5.53;5.03;;;;;;;;;;5102943;27;20661;-57
2022/05/09 06:00:40;;;;;;;5.22;4.70;;;;;;;;;;5083620;28;20585;-58
2022/05/09 06:03:20;;;;;;;5.47;5.07;;;;;;;;;;5103698;27;20542;-57
2022/05/09 06:05:59;;;;;;;5.90;4.32;;;;;;;;;;5063598;27;20558;-57
2022/05/09 06:08:40;;;;;;;5.95;5.30;;;;;;;;;;5123972;27;21076;-57
2022/05/09 06:11:21;;;;;;;12.18;5.38;;;;;;;;;;5083711;27;20575;-58
2022/05/09 06:14:03;;;;;;;5.55;5.15;;;;;;;;;;5155525;27;20529;-57
2022/05/09 06:16:45;;;;;;;5.22;4.82;;;;;;;;;;5082466;27;20574;-57
2022/05/09 06:19:25;;;;;;;6.20;5.57;;;;;;;;;;5144225;27;20550;-57
2022/05/09 06:22:05;;;;;;;4.75;4.28;;;;;;;;;;5079836;27;20684;-57
2022/05/09 06:24:46;;;;;;;5.20;4.68;;;;;;;;;;5083219;28;20604;-57
2022/05/09 06:27:26;;;;;;;5.05;4.57;;;;;;;;;;5103851;27;20542;-58
2022/05/09 06:30:07;;;;;;;7.03;5.18;;;;;;;;;;5103926;27;20627;-58
2022/05/09 06:32:47;;;;;;;4.68;4.28;;;;;;;;;;5161462;27;20545;-58
2022/05/09 06:35:28;;;;;;;5.03;3.72;;;;;;;;;;5082367;28;20640;-57
2022/05/09 06:38:07;;;;;;;4.82;4.43;;;;;;;;;;5132244;27;20544;-57
2022/05/09 06:40:47;;;;;;;4.63;4.13;;;;;;;;;;5103715;27;20549;-57
2022/05/09 06:43:26;;;;;;;4.30;4.00;;;;;;;;;;5076899;28;20699;-58
2022/05/09 06:46:06;;;;;;;4.70;4.40;;;;;;;;;;5121638;27;20555;-59
2022/05/09 06:48:46;;;;;;;4.25;3.95;;;;;;;;;;5135533;27;20592;-57
2022/05/09 06:51:26;;;;;;;4.60;4.22;;;;;;;;;;5084673;27;20613;-57
2022/05/09 06:54:06;;;;;;;5.47;4.53;;;;;;;;;;5097440;27;20569;-57
2022/05/09 06:56:47;;;;;;;4.35;3.95;;;;;;;;;;5131825;27;20599;-58
2022/05/09 06:59:27;;;;;;;3.88;3.58;;;;;;;;;;5118816;27;21211;-58
2022/05/09 07:02:08;;;;;;;5.20;4.80;;;;;;;;;;5115946;27;20563;-59
2022/05/09 07:04:48;;;;;;;7.82;4.28;;;;;;;;;;5139296;27;20689;-57
2022/05/09 07:07:28;;;;;;;3.90;3.60;;;;;;;;;;5146706;27;21069;-57
2022/05/09 07:10:09;;;;;;;3.70;3.40;;;;;;;;;;5079600;27;20922;-57
2022/05/09 07:12:50;;;;;;;7.10;3.28;;;;;;;;;;5098289;27;20554;-59
2022/05/09 07:15:32;;;;;;;4.60;3.75;;;;;;;;;;5099069;27;20673;-57
2022/05/09 07:18:12;;;;;;;3.67;3.20;;;;;;;;;;5103289;27;21144;-57
2022/05/09 07:20:52;;;;;;;3.83;3.42;;;;;;;;;;5151879;27;21102;-58
2022/05/09 07:23:33;;;;;;;3.20;2.90;;;;;;;;;;5081522;27;20601;-58
2022/05/09 07:26:13;;;;;;;3.20;2.90;;;;;;;;;;5135216;27;20686;-58
2022/05/09 07:28:53;;;;;;;3.50;3.22;;;;;;;;;;5126943;27;21070;-58
2022/05/09 07:31:33;;;;;;;3.97;3.13;;;;;;;;;;5099130;27;21153;-57
2022/05/09 07:34:13;;;;;;;4.57;3.10;;;;;;;;;;5082588;28;20551;-58
2022/05/09 07:36:53;;;;;;;3.53;2.70;;;;;;;;;;5143937;27;20566;-57
2022/05/09 07:39:32;;;;;;;5.07;2.85;;;;;;;;;;5103231;27;20563;-57
2022/05/09 07:42:13;;;;;;;3.88;3.15;;;;;;;;;;5111889;27;20955;-58
2022/05/09 07:44:55;;;;;;;3.42;2.55;;;;;;;;;;5097286;27;20666;-59
2022/05/09 07:47:35;;;;;;;3.30;2.58;;;;;;;;;;5146350;27;21062;-57
2022/05/09 07:50:17;;;;;;;3.10;2.85;;;;;;;;;;5149314;27;20564;-57
2022/05/09 07:52:58;;;;;;;4.28;2.45;;;;;;;;;;5141590;27;20546;-57
2022/05/09 07:55:39;;;;;;;3.88;2.83;;;;;;;;;;5101351;27;20830;-57
2022/05/09 07:58:22;;;;;;;2.83;2.63;;;;;;;;;;5102098;27;20662;-59
2022/05/09 08:01:03;;;;;;;3.45;3.10;;;;;;;;;;5123566;27;20552;-57
2022/05/09 08:03:43;;;;;;;5.18;2.50;;;;;;;;;;5083768;27;20555;-57
2022/05/09 08:06:22;;;;;;;2.83;2.63;;;;;;;;;;5102211;27;20546;-57
2022/05/09 08:09:04;;;;;;;2.45;2.30;;;;;;;;;;5155186;27;20532;-57
2022/05/09 08:11:44;;;;;;;3.80;3.15;;;;;;;;;;5123920;27;20883;-57
2022/05/09 08:14:25;;;;;;;3.83;2.78;;;;;;;;;;5103864;27;20587;-57
2022/05/09 08:17:09;;;;;;;3.55;2.33;;;;;;;;;;5081810;28;20676;-58
2022/05/09 08:19:55;;;;;;;2.50;2.40;;;;;;;;;;5144504;27;20911;-58
2022/05/09 08:22:35;;;;;;;2.75;2.55;;;;;;;;;;5103793;27;20685;-57
2022/05/09 08:25:16;;;;;;;2.78;2.38;;;;;;;;;;5102822;27;20545;-57
2022/05/09 08:27:57;;;;;;;3.03;2.28;;;;;;;;;;5083045;27;20547;-57
2022/05/09 08:30:38;;;;;;;2.60;2.40;;;;;;;;;;5075216;27;20561;-58
2022/05/09 08:33:19;;;;;;;3.92;2.45;;;;;;;;;;5103648;27;20549;-57
2022/05/09 08:36:02;;;;;;;3.63;2.28;;;;;;;;;;5122393;27;20540;-58
2022/05/09 08:38:42;;;;;;;2.67;2.47;;;;;;;;;;5103461;27;20827;-58
2022/05/09 08:41:22;;;;;;;2.22;2.03;;;;;;;;;;5123717;27;20560;-57
2022/05/09 08:44:18;;;;;;;2.92;2.72;;;;;;;;;;5161686;27;20541;-58
2022/05/09 08:47:06;;;;;;;3.00;2.63;;;;;;;;;;5102360;27;21135;-57
2022/05/09 08:49:52;;;;;;;1.95;1.80;;;;;;;;;;5083091;28;20609;-57
2022/05/09 08:52:39;;;;;;;2.55;2.35;;;;;;;;;;5083115;27;20836;-55
2022/05/09 08:55:20;;;;;;;2.90;2.55;;;;;;;;;;5123123;27;21049;-58
2022/05/09 08:58:04;;;;;;;3.17;2.40;;;;;;;;;;5103349;27;20681;-56
2022/05/09 09:00:47;;;;;;;2.95;1.75;;;;;;;;;;5136215;27;20670;-58
2022/05/09 09:03:30;;;;;;;2.80;2.60;;;;;;;;;;5083478;28;20593;-57
2022/05/09 09:06:14;;;;;;;2.42;2.22;;;;;;;;;;5081810;27;20604;-58
2022/05/09 09:08:59;;;;;;;2.42;2.22;;;;;;;;;;5082728;27;20544;-57
2022/05/09 09:11:45;;;;;;;2.65;2.45;;;;;;;;;;5141863;27;20618;-58
2022/05/09 09:14:32;;;;;;;3.30;2.50;;;;;;;;;;5144002;27;20567;-59
2022/05/09 09:17:18;;;;;;;2.70;2.50;;;;;;;;;;5081593;27;20543;-58
2022/05/09 09:20:08;;;;;;;2.95;2.20;;;;;;;;;;5123347;27;20602;-58
2022/05/09 09:23:00;;;;;;;2.25;2.00;;;;;;;;;;5086389;27;21060;-58
2022/05/09 09:25:44;;;;;;;2.20;1.90;;;;;;;;;;5115173;27;20546;-58
2022/05/09 09:28:28;;;;;;;2.10;1.90;;;;;;;;;;5103844;27;20538;-58
2022/05/09 09:31:11;;;;;;;2.30;2.13;;;;;;;;;;5120917;27;20556;-57
2022/05/09 09:33:53;;;;;;;2.05;1.90;;;;;;;;;;5082954;28;20609;-58
2022/05/09 09:36:36;;;;;;;2.30;2.20;;;;;;;;;;5081810;27;20562;-58
2022/05/09 09:39:19;;;;;;;3.40;2.22;;;;;;;;;;5123423;27;20540;-57
2022/05/09 09:41:58;;;;;;;2.08;1.88;;;;;;;;;;5103306;27;21008;-58
2022/05/09 09:44:39;;;;;;;2.58;1.63;;;;;;;;;;5103488;27;20586;-58
2022/05/09 09:47:25;;;;;;;2.15;2.05;;;;;;;;;;5102148;27;20534;-58
2022/05/09 09:50:13;;;;;;;2.08;1.98;;;;;;;;;;5103281;27;20693;-57
2022/05/09 09:52:55;;;;;;;2.72;1.98;;;;;;;;;;5105925;27;20714;-58
2022/05/09 09:55:39;;;;;;;2.03;1.92;;;;;;;;;;5102481;27;20545;-58
2022/05/09 09:58:22;;;;;;;2.15;1.85;;;;;;;;;;5082927;28;20680;-57
2022/05/09 10:01:07;;;;;;;2.40;2.20;;;;;;;;;;5163887;27;20548;-57
2022/05/09 10:03:48;;;;;;;1.98;1.73;;;;;;;;;;5082902;27;21145;-57
2022/05/09 10:06:29;;;;;;;2.50;1.83;;;;;;;;;;5122372;27;20939;-58
2022/05/09 10:09:09;;;;;;;2.25;1.88;;;;;;;;;;5164792;27;20533;-58
2022/05/09 10:11:49;;;;;;;2.35;2.15;;;;;;;;;;5162315;27;20590;-58
2022/05/09 10:14:37;;;;;;;2.10;1.90;;;;;;;;;;5136109;27;20661;-58
2022/05/09 10:17:19;;;;;;;3.50;2.17;;;;;;;;;;5102003;27;21115;-58
2022/05/09 10:20:00;;;;;;;2.40;2.20;;;;;;;;;;5136518;27;20538;-58
2022/05/09 10:25:57;;;;;;;2.05;1.95;;;;;;;;;;5122819;27;20593;-58
2022/05/09 10:28:38;;;;;;;2.30;2.10;;;;;;;;;;5145061;27;21039;-58
2022/05/09 10:31:21;;;;;;;2.22;2.08;;;;;;;;;;5082883;28;20559;-57
2022/05/09 10:34:05;;;;;;;2.22;2.03;;;;;;;;;;5083744;27;20593;-57
2022/05/09 10:36:50;;;;;;;4.18;1.95;;;;;;;;;;5160705;27;20964;-58
2022/05/09 10:39:33;;;;;;;2.13;1.92;;;;;;;;;;5083007;28;21008;-58
2022/05/09 10:42:24;;;;;;;1.88;1.63;;;;;;;;;;5082932;28;21026;-58
2022/05/09 10:45:09;;;;;;;2.33;2.13;;;;;;;;;;5081871;27;20553;-57
2022/05/09 10:47:53;;;;;;;2.45;1.95;;;;;;;;;;5123403;27;20613;-58
2022/05/09 10:50:34;;;;;;;3.85;2.05;;;;;;;;;;5123658;27;20548;-57
2022/05/09 10:53:17;;;;;;;1.80;1.70;;;;;;;;;;5083087;27;20551;-58
2022/05/09 10:56:03;;;;;;;1.92;1.83;;;;;;;;;;5082148;28;20597;-58
2022/05/09 10:58:48;;;;;;;2.15;2.05;;;;;;;;;;5082929;28;20668;-58
2022/05/09 11:01:30;;;;;;;2.33;2.13;;;;;;;;;;5082961;28;20692;-59
2022/05/09 11:04:12;;;;;;;2.97;2.15;;;;;;;;;;5132348;27;20601;-59
2022/05/09 11:06:54;;;;;;;2.47;2.22;;;;;;;;;;5122198;27;21064;-58
2022/05/09 11:09:42;;;;;;;3.75;2.15;;;;;;;;;;5083444;27;21040;-58
2022/05/09 11:12:34;;;;;;;2.30;2.10;;;;;;;;;;5124325;27;21065;-58
2022/05/09 11:15:18;;;;;;;4.65;2.10;;;;;;;;;;5135890;27;20936;-58
2022/05/09 11:18:07;;;;;;;1.80;1.70;;;;;;;;;;5082850;27;21009;-59
2022/05/09 11:20:49;;;;;;;3.53;2.33;;;;;;;;;;5106149;27;20558;-57
2022/05/09 11:23:32;;;;;;;2.78;2.03;;;;;;;;;;5082984;27;20565;-59
2022/05/09 11:26:15;;;;;;;1.92;1.80;;;;;;;;;;5101790;27;20646;-58
2022/05/09 11:29:06;;;;;;;2.58;1.90;;;;;;;;;;5082688;27;20545;-58
2022/05/09 11:31:52;;;;;;;1.85;1.75;;;;;;;;;;5102439;27;21071;-59
2022/05/09 11:34:41;;;;;;;2.35;2.20;;;;;;;;;;5082834;27;20558;-58
2022/05/09 11:37:26;;;;;;;2.75;2.33;;;;;;;;;;5101879;27;20623;-57
2022/05/09 11:40:15;;;;;;;2.05;1.85;;;;;;;;;;5102983;27;20550;-58
2022/05/09 11:46:10;;;;;;;2.03;1.92;;;;;;;;;;5081464;27;20556;-58
2022/05/09 11:48:55;;;;;;;2.63;2.42;;;;;;;;;;5082842;27;20561;-57
2022/05/09 11:51:43;;;;;;;2.40;2.20;;;;;;;;;;5081453;28;20688;-57
2022/05/09 11:54:25;;;;;;;2.88;1.75;;;;;;;;;;5083294;28;20672;-58
2022/05/09 11:57:08;;;;;;;2.50;2.30;;;;;;;;;;5151626;27;20620;-59
2022/05/09 11:59:51;;;;;;;2.03;1.92;;;;;;;;;;5082217;27;20547;-58
2022/05/09 12:02:49;;;;;;;5.70;2.53;;;;;;;;;;5083251;28;21574;-58
2022/05/09 12:05:46;;;;;;;2.65;2.13;;;;;;;;;;5115316;27;20535;-58
2022/05/09 12:11:30;;;;;;;1.90;1.80;;;;;;;;;;5083276;27;20567;-58
2022/05/09 12:14:09;;;;;;;2.55;2.35;;;;;;;;;;5132628;27;20660;-59
2022/05/09 12:16:56;;;;;;;2.08;1.98;;;;;;;;;;5143989;27;20538;-57
2022/05/09 12:19:37;;;;;;;2.40;2.17;;;;;;;;;;5083192;27;20609;-57
2022/05/09 12:22:47;;;;;;;2.30;2.17;;;;;;;;;;5133354;27;20547;-57
2022/05/09 12:26:00;;;;;;;2.33;2.15;;;;;;;;;;5158369;27;21076;-58
2022/05/09 12:28:43;;;;;;;2.85;2.15;;;;;;;;;;5103056;27;20545;-58
2022/05/09 12:31:44;;;;;;;2.05;1.90;;;;;;;;;;5082716;27;20580;-58
2022/05/09 12:34:29;;;;;;;2.30;1.95;;;;;;;;;;5083159;28;20597;-58
2022/05/09 12:37:09;;;;;;;2.47;2.28;;;;;;;;;;5131164;27;20695;-58
2022/05/09 12:39:50;;;;;;;2.13;2.00;;;;;;;;;;5103329;27;20551;-58
2022/05/09 12:42:44;;;;;;;2.95;2.42;;;;;;;;;;5138202;27;21044;-58
2022/05/09 12:45:24;;;;;;;3.72;2.38;;;;;;;;;;5081787;28;20620;-57
2022/05/09 12:48:05;;;;;;;2.78;2.10;;;;;;;;;;5082750;28;20589;-58
2022/05/09 12:50:45;;;;;;;2.03;1.92;;;;;;;;;;5080873;28;20563;-58
2022/05/09 12:53:32;;;;;;;2.50;2.13;;;;;;;;;;5083079;27;20548;-58
2022/05/09 12:56:14;;;;;;;2.05;1.95;;;;;;;;;;5081851;28;20684;-58
2022/05/09 12:59:02;;;;;;;2.65;2.45;;;;;;;;;;5125728;27;20597;-58
2022/05/09 13:01:44;;;;;;;2.00;1.90;;;;;;;;;;5161546;27;20902;-58
2022/05/09 13:04:25;;;;;;;2.10;1.92;;;;;;;;;;5083116;27;20560;-58
2022/05/09 13:07:06;;;;;;;3.45;2.10;;;;;;;;;;5102509;27;20588;-58
2022/05/09 13:09:52;;;;;;;3.08;1.95;;;;;;;;;;5082627;28;21024;-58
2022/05/09 13:12:36;;;;;;;4.80;2.30;;;;;;;;;;5083193;27;21035;-57
2022/05/09 13:15:19;;;;;;;3.60;2.00;;;;;;;;;;5102318;27;20935;-58
2022/05/09 13:18:00;;;;;;;3.83;1.88;;;;;;;;;;5082318;27;20676;-58
2022/05/09 13:20:48;;;;;;;1.75;1.65;;;;;;;;;;5075140;28;20615;-59
2022/05/09 13:23:32;;;;;;;2.25;1.98;;;;;;;;;;5124448;27;20652;-60
2022/05/09 13:26:18;;;;;;;3.08;2.10;;;;;;;;;;5119175;27;20545;-58
2022/05/09 13:28:59;;;;;;;2.50;2.15;;;;;;;;;;5102976;27;20684;-57
2022/05/09 13:31:41;;;;;;;2.22;1.95;;;;;;;;;;5132292;27;20552;-57
2022/05/09 13:34:23;;;;;;;1.92;1.70;;;;;;;;;;5083135;28;20671;-58
2022/05/09 13:37:04;;;;;;;2.40;2.13;;;;;;;;;;5082253;27;20553;-58
2022/05/09 13:39:47;;;;;;;2.08;1.98;;;;;;;;;;5103801;27;20666;-59
2022/05/09 13:42:27;;;;;;;1.80;1.70;;;;;;;;;;5124239;27;21103;-58
2022/05/09 13:45:13;;;;;;;1.90;1.80;;;;;;;;;;5123025;27;20695;-58
2022/05/09 13:47:58;;;;;;;1.75;1.65;;;;;;;;;;5068594;28;20720;-59
2022/05/09 13:50:44;;;;;;;2.38;2.05;;;;;;;;;;5094562;27;20585;-58
2022/05/09 13:53:27;;;;;;;2.50;1.27;;;;;;;;;;5073047;28;21105;-58
2022/05/09 13:56:13;;;;;;;2.70;2.38;;;;;;;;;;5067535;27;20575;-59
2022/05/09 13:58:55;;;;;;;3.03;1.90;;;;;;;;;;5062488;28;20697;-58
2022/05/09 14:01:41;;;;;;;1.88;1.77;;;;;;;;;;5066451;28;20568;-59
2022/05/09 14:04:22;;;;;;;2.25;2.05;;;;;;;;;;5161383;27;21045;-59
2022/05/09 14:10:06;;;;;;;1.85;1.75;;;;;;;;;;5078672;27;21076;-58
2022/05/09 14:12:47;;;;;;;2.08;1.98;;;;;;;;;;5081459;28;20544;-58
2022/05/09 14:15:30;;;;;;;1.95;1.85;;;;;;;;;;5081762;27;20662;-58
2022/05/09 14:18:13;;;;;;;3.25;2.40;;;;;;;;;;5101490;27;20623;-59
2022/05/09 14:20:59;;;;;;;5.25;2.22;;;;;;;;;;5121166;27;21094;-58
2022/05/09 14:23:45;;;;;;;2.65;1.95;;;;;;;;;;5116109;27;20545;-59
2022/05/09 14:29:38;;;;;;;2.17;1.98;;;;;;;;;;5122909;27;20540;-58
2022/05/09 14:32:36;;;;;;;1.77;1.67;;;;;;;;;;5081956;28;20551;-59
2022/05/09 14:35:36;;;;;;;2.53;2.33;;;;;;;;;;5081372;27;20591;-58
2022/05/09 14:38:30;;;;;;;5.22;2.40;;;;;;;;;;5131949;27;20544;-58
2022/05/09 14:44:15;;;;;;;2.58;2.33;;;;;;;;;;5143442;27;20612;-58
2022/05/09 14:47:00;;;;;;;2.38;2.13;;;;;;;;;;5080897;28;20668;-58
2022/05/09 14:49:44;;;;;;;2.90;2.33;;;;;;;;;;5132859;27;20563;-58
2022/05/09 14:52:29;;;;;;;2.80;2.60;;;;;;;;;;5082645;28;21352;-58
2022/05/09 14:58:19;;;;;;;2.63;2.42;;;;;;;;;;5080563;27;20578;-58
2022/05/09 15:01:02;;;;;;;2.65;2.45;;;;;;;;;;5089686;27;21037;-58
2022/05/09 15:03:44;;;;;;;2.30;2.10;;;;;;;;;;5099426;27;20591;-58
2022/05/09 15:06:25;;;;;;;2.58;2.38;;;;;;;;;;5100002;27;20596;-58
2022/05/09 15:09:05;;;;;;;2.47;2.13;;;;;;;;;;5100856;27;20552;-58
2022/05/09 15:11:45;;;;;;;3.05;2.83;;;;;;;;;;5122598;27;20552;-58
2022/05/09 15:14:27;;;;;;;4.00;2.55;;;;;;;;;;5126080;27;20540;-58
2022/05/09 15:17:06;;;;;;;2.47;2.10;;;;;;;;;;5153441;27;21022;-58
2022/05/09 15:19:46;;;;;;;2.50;2.30;;;;;;;;;;5081262;28;20664;-60
2022/05/09 15:22:26;;;;;;;1.90;1.80;;;;;;;;;;5082483;28;20597;-58
2022/05/09 15:25:07;;;;;;;2.70;2.30;;;;;;;;;;5125618;27;20544;-58
2022/05/09 15:27:47;;;;;;;3.35;2.10;;;;;;;;;;5081582;28;21550;-59
2022/05/09 15:30:28;;;;;;;2.40;2.25;;;;;;;;;;5080252;28;20605;-58
2022/05/09 15:33:07;;;;;;;2.25;2.10;;;;;;;;;;5080667;27;20564;-58
2022/05/09 15:35:47;;;;;;;2.65;2.25;;;;;;;;;;5079864;28;20551;-58
2022/05/09 15:38:27;;;;;;;3.35;2.17;;;;;;;;;;5146507;27;20535;-57
2022/05/09 15:41:09;;;;;;;2.50;2.30;;;;;;;;;;5120959;27;20591;-59
2022/05/09 15:43:51;;;;;;;3.50;2.50;;;;;;;;;;5080894;27;20584;-58
2022/05/09 15:46:32;;;;;;;2.20;2.10;;;;;;;;;;5124758;27;20548;-59
2022/05/09 15:49:14;;;;;;;2.85;2.45;;;;;;;;;;5082094;27;20605;-59
2022/05/09 15:51:54;;;;;;;3.28;2.28;;;;;;;;;;5101687;27;20553;-59
2022/05/09 15:54:34;;;;;;;3.58;2.65;;;;;;;;;;5102274;27;21017;-58
2022/05/09 15:57:14;;;;;;;2.58;2.30;;;;;;;;;;5143350;27;20547;-58
2022/05/09 15:59:57;;;;;;;2.00;1.90;;;;;;;;;;5145753;27;20534;-58
2022/05/09 16:02:38;;;;;;;2.35;2.20;;;;;;;;;;5079059;27;20648;-58
2022/05/09 16:05:18;;;;;;;2.50;2.30;;;;;;;;;;5100604;27;20615;-59
2022/05/09 16:13:53;;;;;;;6.88;2.83;;;;;;;;;;5090625;27;20701;-57
2022/05/09 16:16:35;;;;;;;2.90;2.70;;;;;;;;;;5080311;28;20569;-56
2022/05/09 16:19:15;;;;;;;3.67;2.75;;;;;;;;;;5135237;27;20551;-57
2022/05/09 16:21:55;;;;;;;3.55;2.72;;;;;;;;;;5114372;27;20561;-56
2022/05/09 16:24:37;;;;;;;3.25;3.00;;;;;;;;;;5121463;27;21341;-57
2022/05/09 16:27:25;;;;;;;5.60;3.67;;;;;;;;;;5122289;27;20579;-56
2022/05/09 16:30:08;;;;;;;3.47;2.83;;;;;;;;;;5077904;28;21055;-56
2022/05/09 16:32:49;;;;;;;4.18;3.63;;;;;;;;;;5148709;27;20886;-56
2022/05/09 16:35:29;;;;;;;6.18;3.88;;;;;;;;;;5110465;27;20545;-56
2022/05/09 16:38:09;;;;;;;5.40;4.90;;;;;;;;;;5080042;28;20553;-57
2022/05/09 16:40:51;;;;;;;3.92;3.55;;;;;;;;;;5076985;27;20882;-56
2022/05/09 16:43:34;;;;;;;6.93;4.35;;;;;;;;;;5102866;27;20549;-56
2022/05/09 16:46:19;;;;;;;5.05;4.60;;;;;;;;;;5145935;27;20542;-57
2022/05/09 16:48:59;;;;;;;7.47;6.53;;;;;;;;;;5149775;27;20548;-58